sensor_id;sensor_type;location;lat;lon;timestamp;temperature;humidity
63017;DHT22;50274;45.640;11.756;2023-11-21T00:01:38;8.40;74.30
63017;DHT22;50274;45.640;11.756;2023-11-21T00:04:03;8.40;74.30
63017;DHT22;50274;45.640;11.756;2023-11-21T00:06:29;8.40;74.20
63017;DHT22;50274;45.640;11.756;2023-11-21T00:08:56;8.40;74.20
63017;DHT22;50274;45.640;11.756;2023-11-21T00:11:22;8.30;74.30
63017;DHT22;50274;45.640;11.756;2023-11-21T00:13:48;8.40;74.30
63017;DHT22;50274;45.640;11.756;2023-11-21T00:16:13;8.40;74.40
63017;DHT22;50274;45.640;11.756;2023-11-21T00:18:39;8.40;74.30
63017;DHT22;50274;45.640;11.756;2023-11-21T00:21:05;8.40;74.30
63017;DHT22;50274;45.640;11.756;2023-11-21T00:23:31;8.40;74.30
63017;DHT22;50274;45.640;11.756;2023-11-21T00:25:57;8.40;74.40
63017;DHT22;50274;45.640;11.756;2023-11-21T00:28:23;8.40;74.40
63017;DHT22;50274;45.640;11.756;2023-11-21T00:30:50;8.40;74.40
63017;DHT22;50274;45.640;11.756;2023-11-21T00:33:16;8.40;74.40
63017;DHT22;50274;45.640;11.756;2023-11-21T00:35:42;8.40;74.40
63017;DHT22;50274;45.640;11.756;2023-11-21T00:38:07;8.40;74.40
63017;DHT22;50274;45.640;11.756;2023-11-21T00:40:34;8.40;74.30
63017;DHT22;50274;45.640;11.756;2023-11-21T00:43:00;8.40;74.30
63017;DHT22;50274;45.640;11.756;2023-11-21T00:45:26;8.40;74.40
63017;DHT22;50274;45.640;11.756;2023-11-21T00:47:52;8.50;74.30
63017;DHT22;50274;45.640;11.756;2023-11-21T00:50:18;8.40;74.50
63017;DHT22;50274;45.640;11.756;2023-11-21T00:52:44;8.40;74.30
63017;DHT22;50274;45.640;11.756;2023-11-21T00:55:10;8.40;74.30
63017;DHT22;50274;45.640;11.756;2023-11-21T00:57:37;8.40;74.30
63017;DHT22;50274;45.640;11.756;2023-11-21T01:00:03;8.50;74.30
63017;DHT22;50274;45.640;11.756;2023-11-21T01:02:40;8.40;74.30
63017;DHT22;50274;45.640;11.756;2023-11-21T01:05:06;8.40;74.30
63017;DHT22;50274;45.640;11.756;2023-11-21T01:07:33;8.40;74.30
63017;DHT22;50274;45.640;11.756;2023-11-21T01:09:59;8.40;74.50
63017;DHT22;50274;45.640;11.756;2023-11-21T01:12:25;8.50;74.40
63017;DHT22;50274;45.640;11.756;2023-11-21T01:14:51;8.50;74.40
63017;DHT22;50274;45.640;11.756;2023-11-21T01:17:17;8.50;74.40
63017;DHT22;50274;45.640;11.756;2023-11-21T01:19:43;8.50;74.50
63017;DHT22;50274;45.640;11.756;2023-11-21T01:22:09;8.40;74.40
63017;DHT22;50274;45.640;11.756;2023-11-21T01:24:37;8.50;74.40
63017;DHT22;50274;45.640;11.756;2023-11-21T01:27:03;8.50;74.50
63017;DHT22;50274;45.640;11.756;2023-11-21T01:29:29;8.50;74.50
63017;DHT22;50274;45.640;11.756;2023-11-21T01:31:55;8.50;74.40
63017;DHT22;50274;45.640;11.756;2023-11-21T01:34:23;8.50;74.40
63017;DHT22;50274;45.640;11.756;2023-11-21T01:36:49;8.40;74.50
63017;DHT22;50274;45.640;11.756;2023-11-21T01:39:15;8.40;74.50
63017;DHT22;50274;45.640;11.756;2023-11-21T01:41:42;8.40;74.60
63017;DHT22;50274;45.640;11.756;2023-11-21T01:44:09;8.40;74.60
63017;DHT22;50274;45.640;11.756;2023-11-21T01:46:36;8.40;74.60
63017;DHT22;50274;45.640;11.756;2023-11-21T01:49:03;8.30;74.70
63017;DHT22;50274;45.640;11.756;2023-11-21T01:51:29;8.40;74.70
63017;DHT22;50274;45.640;11.756;2023-11-21T01:53:55;8.40;74.70
63017;DHT22;50274;45.640;11.756;2023-11-21T01:56:21;8.40;74.80
63017;DHT22;50274;45.640;11.756;2023-11-21T01:58:47;8.40;74.70
63017;DHT22;50274;45.640;11.756;2023-11-21T02:01:13;8.40;74.70
63017;DHT22;50274;45.640;11.756;2023-11-21T02:03:39;8.40;74.60
63017;DHT22;50274;45.640;11.756;2023-11-21T02:06:05;8.40;74.70
63017;DHT22;50274;45.640;11.756;2023-11-21T02:08:31;8.40;74.60
63017;DHT22;50274;45.640;11.756;2023-11-21T02:10:57;8.40;74.60
63017;DHT22;50274;45.640;11.756;2023-11-21T02:13:23;8.40;74.60
63017;DHT22;50274;45.640;11.756;2023-11-21T02:15:49;8.40;74.60
63017;DHT22;50274;45.640;11.756;2023-11-21T02:18:17;8.40;74.60
63017;DHT22;50274;45.640;11.756;2023-11-21T02:20:43;8.40;74.70
63017;DHT22;50274;45.640;11.756;2023-11-21T02:23:09;8.30;74.80
63017;DHT22;50274;45.640;11.756;2023-11-21T02:25:35;8.30;74.70
63017;DHT22;50274;45.640;11.756;2023-11-21T02:28:03;8.40;74.70
63017;DHT22;50274;45.640;11.756;2023-11-21T02:30:29;8.40;74.70
63017;DHT22;50274;45.640;11.756;2023-11-21T02:32:59;8.30;74.80
63017;DHT22;50274;45.640;11.756;2023-11-21T02:35:26;8.30;74.70
63017;DHT22;50274;45.640;11.756;2023-11-21T02:37:52;8.30;74.60
63017;DHT22;50274;45.640;11.756;2023-11-21T02:40:18;8.30;74.70
63017;DHT22;50274;45.640;11.756;2023-11-21T02:42:46;8.30;74.70
63017;DHT22;50274;45.640;11.756;2023-11-21T02:45:14;8.30;74.70
63017;DHT22;50274;45.640;11.756;2023-11-21T02:47:45;8.30;74.70
63017;DHT22;50274;45.640;11.756;2023-11-21T02:50:11;8.30;74.70
63017;DHT22;50274;45.640;11.756;2023-11-21T02:52:37;8.30;74.80
63017;DHT22;50274;45.640;11.756;2023-11-21T02:55:04;8.30;74.80
63017;DHT22;50274;45.640;11.756;2023-11-21T02:57:30;8.30;74.80
63017;DHT22;50274;45.640;11.756;2023-11-21T02:59:56;8.30;74.80
63017;DHT22;50274;45.640;11.756;2023-11-21T03:02:22;8.30;74.80
63017;DHT22;50274;45.640;11.756;2023-11-21T03:04:48;8.20;75.00
63017;DHT22;50274;45.640;11.756;2023-11-21T03:07:15;8.20;74.90
63017;DHT22;50274;45.640;11.756;2023-11-21T03:09:41;8.20;74.90
63017;DHT22;50274;45.640;11.756;2023-11-21T03:12:07;8.20;74.90
63017;DHT22;50274;45.640;11.756;2023-11-21T03:14:34;8.20;74.90
63017;DHT22;50274;45.640;11.756;2023-11-21T03:17:00;8.20;74.90
63017;DHT22;50274;45.640;11.756;2023-11-21T03:19:26;8.20;74.90
63017;DHT22;50274;45.640;11.756;2023-11-21T03:21:51;8.20;75.00
63017;DHT22;50274;45.640;11.756;2023-11-21T03:24:19;8.20;75.00
63017;DHT22;50274;45.640;11.756;2023-11-21T03:26:48;8.20;75.00
63017;DHT22;50274;45.640;11.756;2023-11-21T03:29:14;8.10;75.10
63017;DHT22;50274;45.640;11.756;2023-11-21T03:31:43;8.20;75.00
63017;DHT22;50274;45.640;11.756;2023-11-21T03:34:26;8.20;75.00
63017;DHT22;50274;45.640;11.756;2023-11-21T03:36:53;8.10;75.00
63017;DHT22;50274;45.640;11.756;2023-11-21T03:39:22;8.20;75.00
63017;DHT22;50274;45.640;11.756;2023-11-21T03:41:48;8.20;75.00
63017;DHT22;50274;45.640;11.756;2023-11-21T03:44:14;8.10;75.00
63017;DHT22;50274;45.640;11.756;2023-11-21T03:46:40;8.10;74.90
63017;DHT22;50274;45.640;11.756;2023-11-21T03:49:06;8.10;75.00
63017;DHT22;50274;45.640;11.756;2023-11-21T03:51:33;8.10;75.00
63017;DHT22;50274;45.640;11.756;2023-11-21T03:53:59;8.10;75.00
63017;DHT22;50274;45.640;11.756;2023-11-21T03:56:25;8.00;75.00
63017;DHT22;50274;45.640;11.756;2023-11-21T03:58:51;8.10;75.00
63017;DHT22;50274;45.640;11.756;2023-11-21T04:01:23;8.10;75.00
63017;DHT22;50274;45.640;11.756;2023-11-21T04:03:50;8.10;75.00
63017;DHT22;50274;45.640;11.756;2023-11-21T04:06:17;8.00;75.00
63017;DHT22;50274;45.640;11.756;2023-11-21T04:08:46;8.00;75.00
63017;DHT22;50274;45.640;11.756;2023-11-21T04:11:12;8.00;75.10
63017;DHT22;50274;45.640;11.756;2023-11-21T04:13:39;8.00;75.10
63017;DHT22;50274;45.640;11.756;2023-11-21T04:16:07;8.00;75.10
63017;DHT22;50274;45.640;11.756;2023-11-21T04:18:34;7.90;75.10
63017;DHT22;50274;45.640;11.756;2023-11-21T04:21:00;7.90;75.10
63017;DHT22;50274;45.640;11.756;2023-11-21T04:23:26;7.90;75.20
63017;DHT22;50274;45.640;11.756;2023-11-21T04:25:52;7.90;75.20
63017;DHT22;50274;45.640;11.756;2023-11-21T04:28:19;7.90;75.10
63017;DHT22;50274;45.640;11.756;2023-11-21T04:30:45;7.90;75.20
63017;DHT22;50274;45.640;11.756;2023-11-21T04:33:11;7.90;75.10
63017;DHT22;50274;45.640;11.756;2023-11-21T04:35:37;7.90;75.10
63017;DHT22;50274;45.640;11.756;2023-11-21T04:38:03;7.90;75.00
63017;DHT22;50274;45.640;11.756;2023-11-21T04:40:28;7.90;75.00
63017;DHT22;50274;45.640;11.756;2023-11-21T04:42:54;7.90;75.00
63017;DHT22;50274;45.640;11.756;2023-11-21T04:45:20;7.90;74.90
63017;DHT22;50274;45.640;11.756;2023-11-21T04:47:49;7.80;74.80
63017;DHT22;50274;45.640;11.756;2023-11-21T04:50:14;7.80;74.80
63017;DHT22;50274;45.640;11.756;2023-11-21T04:52:40;7.70;74.80
63017;DHT22;50274;45.640;11.756;2023-11-21T04:55:06;7.70;74.90
63017;DHT22;50274;45.640;11.756;2023-11-21T04:57:36;7.70;74.90
63017;DHT22;50274;45.640;11.756;2023-11-21T05:00:02;7.70;75.00
63017;DHT22;50274;45.640;11.756;2023-11-21T05:02:31;7.70;75.00
63017;DHT22;50274;45.640;11.756;2023-11-21T05:05:00;7.60;75.00
63017;DHT22;50274;45.640;11.756;2023-11-21T05:07:25;7.60;75.00
63017;DHT22;50274;45.640;11.756;2023-11-21T05:09:57;7.60;75.10
63017;DHT22;50274;45.640;11.756;2023-11-21T05:12:24;7.50;75.10
63017;DHT22;50274;45.640;11.756;2023-11-21T05:14:50;7.50;75.20
63017;DHT22;50274;45.640;11.756;2023-11-21T05:17:16;7.50;75.30
63017;DHT22;50274;45.640;11.756;2023-11-21T05:19:42;7.50;75.30
63017;DHT22;50274;45.640;11.756;2023-11-21T05:22:11;7.50;75.40
63017;DHT22;50274;45.640;11.756;2023-11-21T05:24:38;7.50;75.40
63017;DHT22;50274;45.640;11.756;2023-11-21T05:27:06;7.50;75.30
63017;DHT22;50274;45.640;11.756;2023-11-21T05:29:32;7.50;75.30
63017;DHT22;50274;45.640;11.756;2023-11-21T05:31:57;7.40;75.30
63017;DHT22;50274;45.640;11.756;2023-11-21T05:34:23;7.40;75.40
63017;DHT22;50274;45.640;11.756;2023-11-21T05:36:50;7.40;74.70
63017;DHT22;50274;45.640;11.756;2023-11-21T05:39:16;7.40;75.10
63017;DHT22;50274;45.640;11.756;2023-11-21T05:41:46;7.40;75.10
63017;DHT22;50274;45.640;11.756;2023-11-21T05:44:12;7.50;75.10
63017;DHT22;50274;45.640;11.756;2023-11-21T05:46:40;7.50;75.10
63017;DHT22;50274;45.640;11.756;2023-11-21T05:49:06;7.60;75.00
63017;DHT22;50274;45.640;11.756;2023-11-21T05:51:33;7.70;74.90
63017;DHT22;50274;45.640;11.756;2023-11-21T05:53:59;7.70;74.90
63017;DHT22;50274;45.640;11.756;2023-11-21T05:56:25;7.80;74.90
63017;DHT22;50274;45.640;11.756;2023-11-21T05:58:51;7.80;74.90
63017;DHT22;50274;45.640;11.756;2023-11-21T06:01:17;7.80;74.80
63017;DHT22;50274;45.640;11.756;2023-11-21T06:03:43;7.80;74.70
63017;DHT22;50274;45.640;11.756;2023-11-21T06:06:09;7.90;74.70
63017;DHT22;50274;45.640;11.756;2023-11-21T06:08:35;7.90;74.70
63017;DHT22;50274;45.640;11.756;2023-11-21T06:11:00;7.90;74.60
63017;DHT22;50274;45.640;11.756;2023-11-21T06:13:26;7.90;74.60
63017;DHT22;50274;45.640;11.756;2023-11-21T06:15:53;8.00;74.60
63017;DHT22;50274;45.640;11.756;2023-11-21T06:18:19;8.00;74.50
63017;DHT22;50274;45.640;11.756;2023-11-21T06:20:46;8.00;74.40
63017;DHT22;50274;45.640;11.756;2023-11-21T06:23:12;8.00;74.30
63017;DHT22;50274;45.640;11.756;2023-11-21T06:25:38;8.10;74.20
63017;DHT22;50274;45.640;11.756;2023-11-21T06:28:04;8.10;74.20
63017;DHT22;50274;45.640;11.756;2023-11-21T06:30:30;8.10;74.20
63017;DHT22;50274;45.640;11.756;2023-11-21T06:32:56;8.10;74.20
63017;DHT22;50274;45.640;11.756;2023-11-21T06:35:22;8.20;74.10
63017;DHT22;50274;45.640;11.756;2023-11-21T06:37:48;8.20;74.20
63017;DHT22;50274;45.640;11.756;2023-11-21T06:40:14;8.10;74.20
63017;DHT22;50274;45.640;11.756;2023-11-21T06:42:44;8.20;74.20
63017;DHT22;50274;45.640;11.756;2023-11-21T06:45:10;8.10;74.20
63017;DHT22;50274;45.640;11.756;2023-11-21T06:47:37;8.20;74.20
63017;DHT22;50274;45.640;11.756;2023-11-21T06:50:03;8.20;74.20
63017;DHT22;50274;45.640;11.756;2023-11-21T06:52:29;8.20;74.20
63017;DHT22;50274;45.640;11.756;2023-11-21T06:54:55;8.30;74.20
63017;DHT22;50274;45.640;11.756;2023-11-21T06:57:26;8.30;74.30
63017;DHT22;50274;45.640;11.756;2023-11-21T06:59:52;8.30;74.30
63017;DHT22;50274;45.640;11.756;2023-11-21T07:02:18;8.30;74.30
63017;DHT22;50274;45.640;11.756;2023-11-21T07:04:47;8.40;74.20
63017;DHT22;50274;45.640;11.756;2023-11-21T07:07:13;8.40;74.20
63017;DHT22;50274;45.640;11.756;2023-11-21T07:09:39;8.40;74.20
63017;DHT22;50274;45.640;11.756;2023-11-21T07:12:05;8.40;74.20
63017;DHT22;50274;45.640;11.756;2023-11-21T07:14:34;8.50;74.30
63017;DHT22;50274;45.640;11.756;2023-11-21T07:17:00;8.50;74.30
63017;DHT22;50274;45.640;11.756;2023-11-21T07:19:25;8.50;74.30
63017;DHT22;50274;45.640;11.756;2023-11-21T07:21:51;8.60;74.30
63017;DHT22;50274;45.640;11.756;2023-11-21T07:24:17;8.60;74.30
63017;DHT22;50274;45.640;11.756;2023-11-21T07:26:43;8.60;74.30
63017;DHT22;50274;45.640;11.756;2023-11-21T07:29:09;8.60;74.40
63017;DHT22;50274;45.640;11.756;2023-11-21T07:31:37;8.60;74.40
63017;DHT22;50274;45.640;11.756;2023-11-21T07:34:03;8.70;74.40
63017;DHT22;50274;45.640;11.756;2023-11-21T07:36:29;8.70;74.50
63017;DHT22;50274;45.640;11.756;2023-11-21T07:38:55;8.70;74.40
63017;DHT22;50274;45.640;11.756;2023-11-21T07:41:21;8.70;74.40
63017;DHT22;50274;45.640;11.756;2023-11-21T07:43:47;8.70;74.30
63017;DHT22;50274;45.640;11.756;2023-11-21T07:46:13;8.70;74.30
63017;DHT22;50274;45.640;11.756;2023-11-21T07:48:40;8.80;74.30
63017;DHT22;50274;45.640;11.756;2023-11-21T07:51:06;8.80;74.30
63017;DHT22;50274;45.640;11.756;2023-11-21T07:53:32;8.80;74.30
63017;DHT22;50274;45.640;11.756;2023-11-21T07:56:02;8.80;74.50
63017;DHT22;50274;45.640;11.756;2023-11-21T07:58:28;8.80;74.40
63017;DHT22;50274;45.640;11.756;2023-11-21T08:00:54;8.90;74.50
63017;DHT22;50274;45.640;11.756;2023-11-21T08:03:20;8.90;74.50
63017;DHT22;50274;45.640;11.756;2023-11-21T08:05:46;8.90;74.60
63017;DHT22;50274;45.640;11.756;2023-11-21T08:08:12;8.90;74.50
63017;DHT22;50274;45.640;11.756;2023-11-21T08:10:38;9.00;74.50
63017;DHT22;50274;45.640;11.756;2023-11-21T08:13:06;9.00;74.40
63017;DHT22;50274;45.640;11.756;2023-11-21T08:15:34;9.00;74.20
63017;DHT22;50274;45.640;11.756;2023-11-21T08:18:02;9.00;73.30
63017;DHT22;50274;45.640;11.756;2023-11-21T08:20:28;9.00;73.50
63017;DHT22;50274;45.640;11.756;2023-11-21T08:22:54;9.00;72.50
63017;DHT22;50274;45.640;11.756;2023-11-21T08:25:22;9.10;73.10
63017;DHT22;50274;45.640;11.756;2023-11-21T08:27:48;9.20;72.70
63017;DHT22;50274;45.640;11.756;2023-11-21T08:30:14;9.20;72.40
63017;DHT22;50274;45.640;11.756;2023-11-21T08:32:42;9.20;72.30
63017;DHT22;50274;45.640;11.756;2023-11-21T08:35:08;9.20;72.30
63017;DHT22;50274;45.640;11.756;2023-11-21T08:37:35;9.20;71.80
63017;DHT22;50274;45.640;11.756;2023-11-21T08:40:06;9.30;72.10
63017;DHT22;50274;45.640;11.756;2023-11-21T08:42:35;9.30;72.10
63017;DHT22;50274;45.640;11.756;2023-11-21T08:45:01;9.30;72.10
63017;DHT22;50274;45.640;11.756;2023-11-21T08:47:27;9.30;71.90
63017;DHT22;50274;45.640;11.756;2023-11-21T08:49:53;9.30;71.80
63017;DHT22;50274;45.640;11.756;2023-11-21T08:52:19;9.30;71.90
63017;DHT22;50274;45.640;11.756;2023-11-21T08:54:52;9.30;71.70
63017;DHT22;50274;45.640;11.756;2023-11-21T08:57:25;9.30;71.80
63017;DHT22;50274;45.640;11.756;2023-11-21T08:59:50;9.40;71.80
63017;DHT22;50274;45.640;11.756;2023-11-21T09:02:26;9.40;72.00
63017;DHT22;50274;45.640;11.756;2023-11-21T09:04:52;9.40;72.10
63017;DHT22;50274;45.640;11.756;2023-11-21T09:07:20;9.40;72.10
63017;DHT22;50274;45.640;11.756;2023-11-21T09:09:50;9.50;72.40
63017;DHT22;50274;45.640;11.756;2023-11-21T09:12:16;9.40;72.40
63017;DHT22;50274;45.640;11.756;2023-11-21T09:14:43;9.50;72.60
63017;DHT22;50274;45.640;11.756;2023-11-21T09:17:12;9.40;72.40
63017;DHT22;50274;45.640;11.756;2023-11-21T09:19:38;9.50;72.80
63017;DHT22;50274;45.640;11.756;2023-11-21T09:22:04;9.50;72.90
63017;DHT22;50274;45.640;11.756;2023-11-21T09:24:34;9.50;73.00
63017;DHT22;50274;45.640;11.756;2023-11-21T09:27:00;9.50;73.00
63017;DHT22;50274;45.640;11.756;2023-11-21T09:29:29;9.60;72.90
63017;DHT22;50274;45.640;11.756;2023-11-21T09:31:55;9.60;73.00
63017;DHT22;50274;45.640;11.756;2023-11-21T09:34:25;9.70;72.90
63017;DHT22;50274;45.640;11.756;2023-11-21T09:36:51;9.70;72.90
63017;DHT22;50274;45.640;11.756;2023-11-21T09:39:17;9.70;73.00
63017;DHT22;50274;45.640;11.756;2023-11-21T09:41:55;9.70;73.40
63017;DHT22;50274;45.640;11.756;2023-11-21T09:44:45;9.70;73.30
63017;DHT22;50274;45.640;11.756;2023-11-21T09:47:15;9.70;73.40
63017;DHT22;50274;45.640;11.756;2023-11-21T09:49:47;9.70;73.50
63017;DHT22;50274;45.640;11.756;2023-11-21T09:52:22;9.70;73.40
63017;DHT22;50274;45.640;11.756;2023-11-21T09:54:52;9.70;73.40
63017;DHT22;50274;45.640;11.756;2023-11-21T09:57:24;9.70;73.30
63017;DHT22;50274;45.640;11.756;2023-11-21T09:59:52;9.70;73.70
63017;DHT22;50274;45.640;11.756;2023-11-21T10:02:28;9.70;73.50
63017;DHT22;50274;45.640;11.756;2023-11-21T10:04:56;9.70;73.70
63017;DHT22;50274;45.640;11.756;2023-11-21T10:07:23;9.70;73.80
63017;DHT22;50274;45.640;11.756;2023-11-21T10:09:51;9.70;73.80
63017;DHT22;50274;45.640;11.756;2023-11-21T10:12:18;9.70;73.60
63017;DHT22;50274;45.640;11.756;2023-11-21T10:14:48;9.70;73.80
63017;DHT22;50274;45.640;11.756;2023-11-21T10:17:15;9.70;73.70
63017;DHT22;50274;45.640;11.756;2023-11-21T10:19:46;9.70;73.80
63017;DHT22;50274;45.640;11.756;2023-11-21T10:22:13;9.80;73.80
63017;DHT22;50274;45.640;11.756;2023-11-21T10:24:40;9.70;73.90
63017;DHT22;50274;45.640;11.756;2023-11-21T10:27:08;9.80;73.80
63017;DHT22;50274;45.640;11.756;2023-11-21T10:29:33;9.80;73.80
63017;DHT22;50274;45.640;11.756;2023-11-21T10:32:04;9.80;73.80
63017;DHT22;50274;45.640;11.756;2023-11-21T10:34:31;9.80;73.70
63017;DHT22;50274;45.640;11.756;2023-11-21T10:36:57;9.90;73.80
63017;DHT22;50274;45.640;11.756;2023-11-21T10:39:24;9.90;73.90
63017;DHT22;50274;45.640;11.756;2023-11-21T10:41:54;9.90;74.10
63017;DHT22;50274;45.640;11.756;2023-11-21T10:44:20;9.90;74.10
63017;DHT22;50274;45.640;11.756;2023-11-21T10:46:52;10.00;74.10
63017;DHT22;50274;45.640;11.756;2023-11-21T10:49:22;10.00;73.80
63017;DHT22;50274;45.640;11.756;2023-11-21T10:51:51;10.00;74.10
63017;DHT22;50274;45.640;11.756;2023-11-21T10:54:19;10.10;73.90
63017;DHT22;50274;45.640;11.756;2023-11-21T10:56:50;10.10;73.80
63017;DHT22;50274;45.640;11.756;2023-11-21T10:59:17;10.20;73.80
63017;DHT22;50274;45.640;11.756;2023-11-21T11:01:47;10.30;73.90
63017;DHT22;50274;45.640;11.756;2023-11-21T11:04:15;10.30;73.90
63017;DHT22;50274;45.640;11.756;2023-11-21T11:06:43;10.40;73.90
63017;DHT22;50274;45.640;11.756;2023-11-21T11:09:13;10.50;73.90
63017;DHT22;50274;45.640;11.756;2023-11-21T11:11:40;10.50;73.50
63017;DHT22;50274;45.640;11.756;2023-11-21T11:14:13;10.70;73.30
63017;DHT22;50274;45.640;11.756;2023-11-21T11:16:43;10.80;73.00
63017;DHT22;50274;45.640;11.756;2023-11-21T11:19:10;11.00;72.80
63017;DHT22;50274;45.640;11.756;2023-11-21T11:21:43;11.10;72.60
63017;DHT22;50274;45.640;11.756;2023-11-21T11:32:40;11.50;72.80
63017;DHT22;50274;45.640;11.756;2023-11-21T11:35:19;11.60;73.00
63017;DHT22;50274;45.640;11.756;2023-11-21T11:37:47;11.60;72.90
63017;DHT22;50274;45.640;11.756;2023-11-21T11:40:13;11.70;72.90
63017;DHT22;50274;45.640;11.756;2023-11-21T11:42:56;11.70;72.90
63017;DHT22;50274;45.640;11.756;2023-11-21T11:45:22;11.70;72.90
63017;DHT22;50274;45.640;11.756;2023-11-21T11:47:56;11.80;73.10
63017;DHT22;50274;45.640;11.756;2023-11-21T11:50:22;11.80;72.70
63017;DHT22;50274;45.640;11.756;2023-11-21T11:52:51;11.80;72.90
63017;DHT22;50274;45.640;11.756;2023-11-21T11:55:20;11.80;73.00
63017;DHT22;50274;45.640;11.756;2023-11-21T11:57:48;11.90;72.60
63017;DHT22;50274;45.640;11.756;2023-11-21T12:00:41;11.80;72.40
63017;DHT22;50274;45.640;11.756;2023-11-21T12:03:08;11.90;72.50
63017;DHT22;50274;45.640;11.756;2023-11-21T12:05:35;11.90;72.50
63017;DHT22;50274;45.640;11.756;2023-11-21T12:08:05;11.90;72.40
63017;DHT22;50274;45.640;11.756;2023-11-21T12:10:34;11.90;72.30
63017;DHT22;50274;45.640;11.756;2023-11-21T12:13:06;11.90;72.20
63017;DHT22;50274;45.640;11.756;2023-11-21T12:15:36;11.90;72.50
63017;DHT22;50274;45.640;11.756;2023-11-21T12:18:03;11.90;72.30
63017;DHT22;50274;45.640;11.756;2023-11-21T12:20:32;11.90;72.30
63017;DHT22;50274;45.640;11.756;2023-11-21T12:23:04;11.90;72.30
63017;DHT22;50274;45.640;11.756;2023-11-21T12:25:31;11.90;72.30
63017;DHT22;50274;45.640;11.756;2023-11-21T12:28:02;11.80;72.40
63017;DHT22;50274;45.640;11.756;2023-11-21T12:30:30;11.80;72.40
63017;DHT22;50274;45.640;11.756;2023-11-21T12:33:02;11.80;72.40
63017;DHT22;50274;45.640;11.756;2023-11-21T12:35:30;11.70;72.60
63017;DHT22;50274;45.640;11.756;2023-11-21T12:37:56;11.70;72.90
63017;DHT22;50274;45.640;11.756;2023-11-21T12:40:25;11.60;72.80
63017;DHT22;50274;45.640;11.756;2023-11-21T12:42:56;11.60;73.00
63017;DHT22;50274;45.640;11.756;2023-11-21T12:45:27;11.50;73.00
63017;DHT22;50274;45.640;11.756;2023-11-21T12:48:00;11.50;73.10
63017;DHT22;50274;45.640;11.756;2023-11-21T12:50:29;11.50;73.20
63017;DHT22;50274;45.640;11.756;2023-11-21T12:55:34;11.40;73.30
63017;DHT22;50274;45.640;11.756;2023-11-21T12:58:05;11.40;73.30
63017;DHT22;50274;45.640;11.756;2023-11-21T13:00:40;11.40;73.30
63017;DHT22;50274;45.640;11.756;2023-11-21T13:03:09;11.30;73.50
63017;DHT22;50274;45.640;11.756;2023-11-21T13:05:40;11.30;73.80
63017;DHT22;50274;45.640;11.756;2023-11-21T13:08:12;11.30;73.70
63017;DHT22;50274;45.640;11.756;2023-11-21T13:10:43;11.30;73.80
63017;DHT22;50274;45.640;11.756;2023-11-21T13:13:13;11.20;74.00
63017;DHT22;50274;45.640;11.756;2023-11-21T13:15:53;11.20;74.10
63017;DHT22;50274;45.640;11.756;2023-11-21T13:18:26;11.30;73.90
63017;DHT22;50274;45.640;11.756;2023-11-21T13:20:58;11.30;74.10
63017;DHT22;50274;45.640;11.756;2023-11-21T13:23:26;11.30;74.20
63017;DHT22;50274;45.640;11.756;2023-11-21T13:25:52;11.30;74.20
63017;DHT22;50274;45.640;11.756;2023-11-21T13:28:18;11.20;74.20
63017;DHT22;50274;45.640;11.756;2023-11-21T13:30:47;11.30;74.10
63017;DHT22;50274;45.640;11.756;2023-11-21T13:33:14;11.30;74.40
63017;DHT22;50274;45.640;11.756;2023-11-21T13:35:47;11.30;74.70
63017;DHT22;50274;45.640;11.756;2023-11-21T13:38:16;11.30;74.40
63017;DHT22;50274;45.640;11.756;2023-11-21T13:40:47;11.40;74.40
63017;DHT22;50274;45.640;11.756;2023-11-21T13:43:18;11.40;74.50
63017;DHT22;50274;45.640;11.756;2023-11-21T13:45:47;11.40;74.40
63017;DHT22;50274;45.640;11.756;2023-11-21T13:48:13;11.30;74.60
63017;DHT22;50274;45.640;11.756;2023-11-21T13:50:43;11.30;74.80
63017;DHT22;50274;45.640;11.756;2023-11-21T13:53:24;11.40;74.90
63017;DHT22;50274;45.640;11.756;2023-11-21T13:55:50;11.30;74.90
63017;DHT22;50274;45.640;11.756;2023-11-21T13:58:23;11.40;75.30
63017;DHT22;50274;45.640;11.756;2023-11-21T14:00:58;11.40;74.90
63017;DHT22;50274;45.640;11.756;2023-11-21T14:03:24;11.40;75.40
63017;DHT22;50274;45.640;11.756;2023-11-21T14:05:58;11.40;75.30
63017;DHT22;50274;45.640;11.756;2023-11-21T14:08:26;11.40;75.40
63017;DHT22;50274;45.640;11.756;2023-11-21T14:10:54;11.40;75.70
63017;DHT22;50274;45.640;11.756;2023-11-21T14:13:26;11.40;75.30
63017;DHT22;50274;45.640;11.756;2023-11-21T14:15:51;11.40;75.40
63017;DHT22;50274;45.640;11.756;2023-11-21T14:18:26;11.40;75.40
63017;DHT22;50274;45.640;11.756;2023-11-21T14:21:06;11.40;75.50
63017;DHT22;50274;45.640;11.756;2023-11-21T14:23:34;11.40;75.40
63017;DHT22;50274;45.640;11.756;2023-11-21T14:26:01;11.40;75.50
63017;DHT22;50274;45.640;11.756;2023-11-21T14:28:28;11.40;75.60
63017;DHT22;50274;45.640;11.756;2023-11-21T14:30:53;11.40;75.80
63017;DHT22;50274;45.640;11.756;2023-11-21T14:33:19;11.40;75.70
63017;DHT22;50274;45.640;11.756;2023-11-21T14:35:45;11.40;75.80
63017;DHT22;50274;45.640;11.756;2023-11-21T14:38:12;11.40;76.00
63017;DHT22;50274;45.640;11.756;2023-11-21T14:40:39;11.30;75.80
63017;DHT22;50274;45.640;11.756;2023-11-21T14:43:06;11.40;75.80
63017;DHT22;50274;45.640;11.756;2023-11-21T14:45:33;11.40;75.70
63017;DHT22;50274;45.640;11.756;2023-11-21T14:48:00;11.30;75.80
63017;DHT22;50274;45.640;11.756;2023-11-21T14:50:42;11.40;76.00
63017;DHT22;50274;45.640;11.756;2023-11-21T14:53:09;11.40;76.30
63017;DHT22;50274;45.640;11.756;2023-11-21T14:55:36;11.40;76.10
63017;DHT22;50274;45.640;11.756;2023-11-21T14:58:17;11.40;76.40
63017;DHT22;50274;45.640;11.756;2023-11-21T15:01:00;11.30;76.30
63017;DHT22;50274;45.640;11.756;2023-11-21T15:03:28;11.30;76.20
63017;DHT22;50274;45.640;11.756;2023-11-21T15:05:59;11.30;76.40
63017;DHT22;50274;45.640;11.756;2023-11-21T15:08:35;11.30;76.30
63017;DHT22;50274;45.640;11.756;2023-11-21T15:11:02;11.30;76.30
63017;DHT22;50274;45.640;11.756;2023-11-21T15:13:32;11.30;76.30
63017;DHT22;50274;45.640;11.756;2023-11-21T15:15:58;11.30;76.40
63017;DHT22;50274;45.640;11.756;2023-11-21T15:18:33;11.30;76.40
63017;DHT22;50274;45.640;11.756;2023-11-21T15:21:00;11.30;76.40
63017;DHT22;50274;45.640;11.756;2023-11-21T15:23:25;11.30;76.50
63017;DHT22;50274;45.640;11.756;2023-11-21T15:25:53;11.30;76.40
63017;DHT22;50274;45.640;11.756;2023-11-21T15:28:19;11.20;76.40
63017;DHT22;50274;45.640;11.756;2023-11-21T15:30:45;11.20;76.50
63017;DHT22;50274;45.640;11.756;2023-11-21T15:33:15;11.20;76.50
63017;DHT22;50274;45.640;11.756;2023-11-21T15:35:40;11.20;76.60
63017;DHT22;50274;45.640;11.756;2023-11-21T15:38:07;11.20;76.60
63017;DHT22;50274;45.640;11.756;2023-11-21T15:40:34;11.20;76.60
63017;DHT22;50274;45.640;11.756;2023-11-21T15:43:00;11.20;76.70